Accueil
METAR-TAF:

METAR-TAF

Aéroports :

Aéroport Nikola-Tesla de Belgrade

Belgrade, Serbie

latitude: 44-49N, longitude: 020-17E, altitude: 96 m

Observation

Le bulletin a été fait il y a 38 minutes, à 23:00 UTC
Vent 2 kt de sud-est
Température 23°C
Humidité 65%
Pression 1013 hPa
Visibilité 10 km ou plus
pas de nuages en-dessous de 1500 mètres et pas de cumulonimbus.

METAR: LYBE 032300Z 13002KT CAVOK 23/16 Q1013 NOSIG

Heure: 01:38 (23:38 UTC)

Prévision

Le bulletin a été fait il y a 6 heures et 38 minutes, à 17:00 UTC
Prévision valable du 03 à 18 UTC au 04 à 18 UTC
Vent 5 kt de nord-est
Visibilité 10 km ou plus
pas de nuages en-dessous de 1500 mètres et pas de cumulonimbus.

TAF: LYBE 031700Z 0318/0418 04005KT CAVOK TX33/0413Z TN18/0403Z

Observations et prévisions météorologiques de plus de 4000 aéroports (messages METAR et TAF).

Les stations disponibles sont représentées par des disques jaunes et rouges sur la carte.

Passer la souris dessus pour voir le nom de la station.

Cliquer dessus pour voir les observations et prévisions météorologiques.

Pour changer de carte: cliquez sur les boutons verts avec une croix noire pour zoomer, sur le bouton vert avec un tiret pour effectuer un zoom arrière, ou sur les flèches vertes pour les cartes adjacentes.


METAR-TAF: